Aviation Digital Data Service (ADDS)

Output produced by METARs form (0550 UTC 29 April 2016)
found at http://www.aviationweather.gov/adds/metars/
 
KILG 290537Z 05009KT 3SM BR BKN005 OVC017 07/06 A3003 RMK AO2 T00720056
KILG 290520Z 2906/3006 06007KT 5SM BR BKN006 OVC012 
     TEMPO 2906/2910 3SM -DZ BR SCT006 OVC012 
     FM291000 06005KT 6SM BR OVC012 
     FM291600 07008KT 6SM BR VCSH BKN020 OVC040 
     TEMPO 2916/2920 4SM -SHRA BR OVC015 
     FM300100 08005KT 4SM BR OVC008